sensor_id;sensor_type;location;lat;lon;timestamp;temperature;humidity
34460;DHT22;20704;51.260;22.558;2022-09-25T00:09:36;9.10;99.90
34460;DHT22;20704;51.260;22.558;2022-09-25T00:19:21;9.10;99.90
34460;DHT22;20704;51.260;22.558;2022-09-25T00:22:10;9.20;99.90
34460;DHT22;20704;51.260;22.558;2022-09-25T00:24:36;9.20;99.90
34460;DHT22;20704;51.260;22.558;2022-09-25T00:29:28;9.30;99.90
34460;DHT22;20704;51.260;22.558;2022-09-25T00:31:55;9.40;99.90
34460;DHT22;20704;51.260;22.558;2022-09-25T00:34:21;9.30;99.90
34460;DHT22;20704;51.260;22.558;2022-09-25T00:41:39;9.30;99.90
34460;DHT22;20704;51.260;22.558;2022-09-25T00:44:39;9.40;99.90
34460;DHT22;20704;51.260;22.558;2022-09-25T00:46:51;9.40;99.90
34460;DHT22;20704;51.260;22.558;2022-09-25T00:51:45;9.40;99.90
34460;DHT22;20704;51.260;22.558;2022-09-25T00:59:07;9.40;99.90
34460;DHT22;20704;51.260;22.558;2022-09-25T01:01:34;9.50;99.90
34460;DHT22;20704;51.260;22.558;2022-09-25T01:06:26;9.40;99.90
34460;DHT22;20704;51.260;22.558;2022-09-25T01:31:16;9.30;99.90
34460;DHT22;20704;51.260;22.558;2022-09-25T01:36:15;9.40;99.90
34460;DHT22;20704;51.260;22.558;2022-09-25T01:50:56;9.30;99.90
34460;DHT22;20704;51.260;22.558;2022-09-25T02:05:40;9.30;99.90
34460;DHT22;20704;51.260;22.558;2022-09-25T02:08:19;9.30;99.90
34460;DHT22;20704;51.260;22.558;2022-09-25T02:18:07;9.30;99.90
34460;DHT22;20704;51.260;22.558;2022-09-25T02:25:51;9.10;99.90
34460;DHT22;20704;51.260;22.558;2022-09-25T02:30:46;9.10;99.90
34460;DHT22;20704;51.260;22.558;2022-09-25T02:35:39;9.10;99.90
34460;DHT22;20704;51.260;22.558;2022-09-25T02:38:06;9.10;99.90
34460;DHT22;20704;51.260;22.558;2022-09-25T02:58:25;8.90;99.90
34460;DHT22;20704;51.260;22.558;2022-09-25T03:05:48;8.90;99.90
34460;DHT22;20704;51.260;22.558;2022-09-25T03:08:16;8.90;99.90
34460;DHT22;20704;51.260;22.558;2022-09-25T03:20:51;8.80;99.90
34460;DHT22;20704;51.260;22.558;2022-09-25T03:33:10;8.80;99.90
34460;DHT22;20704;51.260;22.558;2022-09-25T03:35:37;8.80;99.90
34460;DHT22;20704;51.260;22.558;2022-09-25T03:42:55;8.60;99.90
34460;DHT22;20704;51.260;22.558;2022-09-25T03:45:21;8.60;99.90
34460;DHT22;20704;51.260;22.558;2022-09-25T03:55:06;8.50;99.90
34460;DHT22;20704;51.260;22.558;2022-09-25T04:02:27;8.40;99.90
34460;DHT22;20704;51.260;22.558;2022-09-25T04:09:45;8.50;99.90
34460;DHT22;20704;51.260;22.558;2022-09-25T04:12:11;8.50;99.90
34460;DHT22;20704;51.260;22.558;2022-09-25T04:21:56;8.40;99.90
34460;DHT22;20704;51.260;22.558;2022-09-25T04:24:22;8.40;99.90
34460;DHT22;20704;51.260;22.558;2022-09-25T04:34:44;8.20;99.90
34460;DHT22;20704;51.260;22.558;2022-09-25T04:44:31;8.40;99.90
34460;DHT22;20704;51.260;22.558;2022-09-25T04:51:49;8.40;99.90
34460;DHT22;20704;51.260;22.558;2022-09-25T04:59:08;8.50;99.90
34460;DHT22;20704;51.260;22.558;2022-09-25T05:01:36;8.70;99.90
34460;DHT22;20704;51.260;22.558;2022-09-25T05:08:56;10.30;99.90
34460;DHT22;20704;51.260;22.558;2022-09-25T05:16:15;11.10;99.90
34460;DHT22;20704;51.260;22.558;2022-09-25T05:18:41;11.30;99.90
34460;DHT22;20704;51.260;22.558;2022-09-25T05:28:27;11.40;99.90
34460;DHT22;20704;51.260;22.558;2022-09-25T05:33:19;12.80;99.90
34460;DHT22;20704;51.260;22.558;2022-09-25T05:35:45;14.00;99.90
34460;DHT22;20704;51.260;22.558;2022-09-25T05:38:13;14.90;99.90
34460;DHT22;20704;51.260;22.558;2022-09-25T05:40:39;15.50;99.90
34460;DHT22;20704;51.260;22.558;2022-09-25T05:43:05;16.40;99.90
34460;DHT22;20704;51.260;22.558;2022-09-25T05:45:31;17.20;98.50
34460;DHT22;20704;51.260;22.558;2022-09-25T05:48:05;19.20;91.20
34460;DHT22;20704;51.260;22.558;2022-09-25T05:50:31;19.00;91.30
34460;DHT22;20704;51.260;22.558;2022-09-25T05:52:58;19.70;86.10
34460;DHT22;20704;51.260;22.558;2022-09-25T05:55:24;19.60;84.00
34460;DHT22;20704;51.260;22.558;2022-09-25T05:57:50;21.10;80.80
34460;DHT22;20704;51.260;22.558;2022-09-25T06:00:16;20.90;79.40
34460;DHT22;20704;51.260;22.558;2022-09-25T06:02:42;20.80;77.00
34460;DHT22;20704;51.260;22.558;2022-09-25T06:05:08;20.00;79.10
34460;DHT22;20704;51.260;22.558;2022-09-25T06:07:34;18.50;81.50
34460;DHT22;20704;51.260;22.558;2022-09-25T06:10:00;18.90;82.40
34460;DHT22;20704;51.260;22.558;2022-09-25T06:12:29;19.10;81.40
34460;DHT22;20704;51.260;22.558;2022-09-25T06:14:55;19.90;79.20
34460;DHT22;20704;51.260;22.558;2022-09-25T06:17:21;20.80;77.40
34460;DHT22;20704;51.260;22.558;2022-09-25T06:19:47;21.20;74.90
34460;DHT22;20704;51.260;22.558;2022-09-25T06:22:13;20.30;75.50
34460;DHT22;20704;51.260;22.558;2022-09-25T06:24:39;20.70;75.10
34460;DHT22;20704;51.260;22.558;2022-09-25T06:27:06;20.80;74.20
34460;DHT22;20704;51.260;22.558;2022-09-25T06:29:32;19.90;73.30
34460;DHT22;20704;51.260;22.558;2022-09-25T06:31:58;20.90;74.70
34460;DHT22;20704;51.260;22.558;2022-09-25T06:34:23;19.90;76.90
34460;DHT22;20704;51.260;22.558;2022-09-25T06:36:49;20.40;77.60
34460;DHT22;20704;51.260;22.558;2022-09-25T06:39:16;20.80;78.00
34460;DHT22;20704;51.260;22.558;2022-09-25T06:41:41;20.90;77.10
34460;DHT22;20704;51.260;22.558;2022-09-25T06:44:10;20.20;77.20
34460;DHT22;20704;51.260;22.558;2022-09-25T06:46:36;20.00;77.60
34460;DHT22;20704;51.260;22.558;2022-09-25T06:49:02;20.90;78.90
34460;DHT22;20704;51.260;22.558;2022-09-25T06:51:32;20.60;76.90
34460;DHT22;20704;51.260;22.558;2022-09-25T06:53:58;20.40;77.50
34460;DHT22;20704;51.260;22.558;2022-09-25T06:56:24;20.20;77.50
34460;DHT22;20704;51.260;22.558;2022-09-25T06:58:50;19.90;78.00
34460;DHT22;20704;51.260;22.558;2022-09-25T07:01:16;20.80;80.50
34460;DHT22;20704;51.260;22.558;2022-09-25T07:03:42;20.00;79.20
34460;DHT22;20704;51.260;22.558;2022-09-25T07:06:12;20.70;79.10
34460;DHT22;20704;51.260;22.558;2022-09-25T07:08:39;20.50;78.30
34460;DHT22;20704;51.260;22.558;2022-09-25T07:11:05;19.80;77.90
34460;DHT22;20704;51.260;22.558;2022-09-25T07:13:32;19.20;79.50
34460;DHT22;20704;51.260;22.558;2022-09-25T07:15:59;20.20;80.50
34460;DHT22;20704;51.260;22.558;2022-09-25T07:18:26;20.60;79.90
34460;DHT22;20704;51.260;22.558;2022-09-25T07:20:52;19.70;79.60
34460;DHT22;20704;51.260;22.558;2022-09-25T07:23:19;20.00;80.80
34460;DHT22;20704;51.260;22.558;2022-09-25T07:25:46;20.10;81.10
34460;DHT22;20704;51.260;22.558;2022-09-25T07:28:13;20.30;79.90
34460;DHT22;20704;51.260;22.558;2022-09-25T07:30:39;20.50;79.60
34460;DHT22;20704;51.260;22.558;2022-09-25T07:33:05;20.50;78.80
34460;DHT22;20704;51.260;22.558;2022-09-25T07:35:32;20.70;77.40
34460;DHT22;20704;51.260;22.558;2022-09-25T07:37:59;19.80;79.00
34460;DHT22;20704;51.260;22.558;2022-09-25T07:40:25;20.00;80.50
34460;DHT22;20704;51.260;22.558;2022-09-25T07:43:14;19.40;81.50
34460;DHT22;20704;51.260;22.558;2022-09-25T07:45:47;19.50;81.90
34460;DHT22;20704;51.260;22.558;2022-09-25T07:48:13;20.40;79.00
34460;DHT22;20704;51.260;22.558;2022-09-25T07:50:39;20.80;78.90
34460;DHT22;20704;51.260;22.558;2022-09-25T07:53:06;20.80;78.40
34460;DHT22;20704;51.260;22.558;2022-09-25T07:55:33;21.90;78.30
34460;DHT22;20704;51.260;22.558;2022-09-25T07:57:59;22.60;76.20
34460;DHT22;20704;51.260;22.558;2022-09-25T08:00:25;22.30;74.20
34460;DHT22;20704;51.260;22.558;2022-09-25T08:02:55;21.80;73.60
34460;DHT22;20704;51.260;22.558;2022-09-25T08:05:21;21.70;74.70
34460;DHT22;20704;51.260;22.558;2022-09-25T08:07:47;20.50;78.30
34460;DHT22;20704;51.260;22.558;2022-09-25T08:10:13;21.40;75.80
34460;DHT22;20704;51.260;22.558;2022-09-25T08:12:39;21.20;76.60
34460;DHT22;20704;51.260;22.558;2022-09-25T08:15:05;19.90;77.30
34460;DHT22;20704;51.260;22.558;2022-09-25T08:17:32;19.30;80.00
34460;DHT22;20704;51.260;22.558;2022-09-25T08:19:57;19.90;80.80
34460;DHT22;20704;51.260;22.558;2022-09-25T08:22:24;20.70;77.70
34460;DHT22;20704;51.260;22.558;2022-09-25T08:24:50;20.60;78.50
34460;DHT22;20704;51.260;22.558;2022-09-25T08:27:15;22.00;76.30
34460;DHT22;20704;51.260;22.558;2022-09-25T08:29:42;20.00;75.40
34460;DHT22;20704;51.260;22.558;2022-09-25T08:32:08;21.80;75.60
34460;DHT22;20704;51.260;22.558;2022-09-25T08:34:34;21.80;74.20
34460;DHT22;20704;51.260;22.558;2022-09-25T08:37:01;21.60;74.30
34460;DHT22;20704;51.260;22.558;2022-09-25T08:39:26;20.70;76.50
34460;DHT22;20704;51.260;22.558;2022-09-25T08:41:53;20.50;76.90
34460;DHT22;20704;51.260;22.558;2022-09-25T08:47:11;19.10;77.60
34460;DHT22;20704;51.260;22.558;2022-09-25T08:52:28;18.80;80.10
34460;DHT22;20704;51.260;22.558;2022-09-25T08:54:55;19.70;81.20
34460;DHT22;20704;51.260;22.558;2022-09-25T08:57:32;20.70;78.90
34460;DHT22;20704;51.260;22.558;2022-09-25T09:00:23;21.20;77.40
34460;DHT22;20704;51.260;22.558;2022-09-25T09:02:54;21.20;77.50
34460;DHT22;20704;51.260;22.558;2022-09-25T09:08:01;21.40;77.90
34460;DHT22;20704;51.260;22.558;2022-09-25T09:10:33;19.80;79.20
34460;DHT22;20704;51.260;22.558;2022-09-25T09:13:04;20.80;80.90
34460;DHT22;20704;51.260;22.558;2022-09-25T09:15:42;21.20;79.90
34460;DHT22;20704;51.260;22.558;2022-09-25T09:18:21;21.30;78.10
34460;DHT22;20704;51.260;22.558;2022-09-25T09:20:49;21.50;77.30
34460;DHT22;20704;51.260;22.558;2022-09-25T09:23:16;20.80;77.90
34460;DHT22;20704;51.260;22.558;2022-09-25T09:25:58;20.30;79.50
34460;DHT22;20704;51.260;22.558;2022-09-25T09:28:42;20.10;80.70
34460;DHT22;20704;51.260;22.558;2022-09-25T09:36:42;20.30;79.50
34460;DHT22;20704;51.260;22.558;2022-09-25T09:39:22;19.80;81.70
34460;DHT22;20704;51.260;22.558;2022-09-25T09:42:03;18.90;83.30
34460;DHT22;20704;51.260;22.558;2022-09-25T09:49:58;19.60;82.70
34460;DHT22;20704;51.260;22.558;2022-09-25T09:52:31;19.80;84.30
34460;DHT22;20704;51.260;22.558;2022-09-25T09:55:06;18.90;83.90
34460;DHT22;20704;51.260;22.558;2022-09-25T09:57:51;19.40;83.30
34460;DHT22;20704;51.260;22.558;2022-09-25T10:00:18;19.40;81.20
34460;DHT22;20704;51.260;22.558;2022-09-25T10:02:47;20.10;82.00
34460;DHT22;20704;51.260;22.558;2022-09-25T10:07:47;20.80;80.30
34460;DHT22;20704;51.260;22.558;2022-09-25T10:10:15;20.40;82.20
34460;DHT22;20704;51.260;22.558;2022-09-25T10:12:51;20.70;83.10
34460;DHT22;20704;51.260;22.558;2022-09-25T10:17:51;21.20;79.70
34460;DHT22;20704;51.260;22.558;2022-09-25T10:20:19;20.30;82.50
34460;DHT22;20704;51.260;22.558;2022-09-25T10:22:45;18.60;80.90
34460;DHT22;20704;51.260;22.558;2022-09-25T10:25:12;20.60;82.20
34460;DHT22;20704;51.260;22.558;2022-09-25T10:27:38;20.70;82.60
34460;DHT22;20704;51.260;22.558;2022-09-25T10:30:16;20.20;82.70
34460;DHT22;20704;51.260;22.558;2022-09-25T10:35:22;19.40;84.30
34460;DHT22;20704;51.260;22.558;2022-09-25T10:37:56;19.00;83.60
34460;DHT22;20704;51.260;22.558;2022-09-25T10:40:33;19.20;85.60
34460;DHT22;20704;51.260;22.558;2022-09-25T10:43:04;23.30;87.90
34460;DHT22;20704;51.260;22.558;2022-09-25T10:45:32;19.70;85.20
34460;DHT22;20704;51.260;22.558;2022-09-25T10:47:58;19.30;84.10
34460;DHT22;20704;51.260;22.558;2022-09-25T10:50:43;19.80;84.60
34460;DHT22;20704;51.260;22.558;2022-09-25T10:53:30;20.10;82.60
34460;DHT22;20704;51.260;22.558;2022-09-25T10:56:05;20.10;82.00
34460;DHT22;20704;51.260;22.558;2022-09-25T10:58:44;20.50;82.60
34460;DHT22;20704;51.260;22.558;2022-09-25T11:01:12;20.70;82.40
34460;DHT22;20704;51.260;22.558;2022-09-25T11:03:43;19.40;82.10
34460;DHT22;20704;51.260;22.558;2022-09-25T11:06:21;19.20;83.00
34460;DHT22;20704;51.260;22.558;2022-09-25T11:08:49;18.60;85.50
34460;DHT22;20704;51.260;22.558;2022-09-25T11:11:20;18.90;87.90
34460;DHT22;20704;51.260;22.558;2022-09-25T11:13:49;18.90;84.90
34460;DHT22;20704;51.260;22.558;2022-09-25T11:16:15;18.80;85.40
34460;DHT22;20704;51.260;22.558;2022-09-25T11:18:45;19.10;86.20
34460;DHT22;20704;51.260;22.558;2022-09-25T11:21:37;19.00;86.10
34460;DHT22;20704;51.260;22.558;2022-09-25T11:24:16;19.00;85.60
34460;DHT22;20704;51.260;22.558;2022-09-25T11:26:55;19.10;86.30
34460;DHT22;20704;51.260;22.558;2022-09-25T11:29:25;18.90;85.20
34460;DHT22;20704;51.260;22.558;2022-09-25T11:32:00;18.80;85.50
34460;DHT22;20704;51.260;22.558;2022-09-25T11:39:44;18.70;87.30
34460;DHT22;20704;51.260;22.558;2022-09-25T11:42:31;18.60;88.40
34460;DHT22;20704;51.260;22.558;2022-09-25T11:45:03;18.30;88.50
34460;DHT22;20704;51.260;22.558;2022-09-25T11:50:09;18.00;90.10
34460;DHT22;20704;51.260;22.558;2022-09-25T11:52:37;18.50;90.40
34460;DHT22;20704;51.260;22.558;2022-09-25T12:09:14;17.60;92.30
34460;DHT22;20704;51.260;22.558;2022-09-25T12:21:58;17.00;93.30
34460;DHT22;20704;51.260;22.558;2022-09-25T12:32:58;16.70;95.50
34460;DHT22;20704;51.260;22.558;2022-09-25T12:38:09;16.50;96.80
34460;DHT22;20704;51.260;22.558;2022-09-25T12:40:41;12.10;95.80
34460;DHT22;20704;51.260;22.558;2022-09-25T12:43:15;16.50;97.10
34460;DHT22;20704;51.260;22.558;2022-09-25T12:45:50;16.40;97.50
34460;DHT22;20704;51.260;22.558;2022-09-25T12:48:24;16.50;97.70
34460;DHT22;20704;51.260;22.558;2022-09-25T12:50:58;16.60;98.50
34460;DHT22;20704;51.260;22.558;2022-09-25T12:56:26;16.40;97.60
34460;DHT22;20704;51.260;22.558;2022-09-25T13:06:15;16.30;98.60
34460;DHT22;20704;51.260;22.558;2022-09-25T13:08:47;16.20;98.70
34460;DHT22;20704;51.260;22.558;2022-09-25T13:11:36;16.00;99.60
34460;DHT22;20704;51.260;22.558;2022-09-25T13:14:04;15.90;99.90
34460;DHT22;20704;51.260;22.558;2022-09-25T13:16:31;15.80;99.90
34460;DHT22;20704;51.260;22.558;2022-09-25T13:21:43;15.10;99.90
34460;DHT22;20704;51.260;22.558;2022-09-25T13:24:13;15.70;99.90
34460;DHT22;20704;51.260;22.558;2022-09-25T13:26:43;16.00;99.90
34460;DHT22;20704;51.260;22.558;2022-09-25T13:29:16;15.90;99.90
34460;DHT22;20704;51.260;22.558;2022-09-25T13:31:45;15.90;99.90
34460;DHT22;20704;51.260;22.558;2022-09-25T13:34:12;16.00;99.90
34460;DHT22;20704;51.260;22.558;2022-09-25T13:36:40;15.90;99.90
34460;DHT22;20704;51.260;22.558;2022-09-25T13:42:01;16.10;99.90
34460;DHT22;20704;51.260;22.558;2022-09-25T13:49:48;16.00;99.90
34460;DHT22;20704;51.260;22.558;2022-09-25T13:52:49;15.90;99.90
34460;DHT22;20704;51.260;22.558;2022-09-25T13:55:39;16.10;99.90
34460;DHT22;20704;51.260;22.558;2022-09-25T13:58:18;16.00;99.90
34460;DHT22;20704;51.260;22.558;2022-09-25T14:03:28;15.90;99.90
34460;DHT22;20704;51.260;22.558;2022-09-25T14:05:57;16.00;99.90
34460;DHT22;20704;51.260;22.558;2022-09-25T14:08:23;15.90;99.90
34460;DHT22;20704;51.260;22.558;2022-09-25T14:10:50;15.90;99.90
34460;DHT22;20704;51.260;22.558;2022-09-25T14:13:19;16.10;99.90
34460;DHT22;20704;51.260;22.558;2022-09-25T14:15:50;15.70;99.90
34460;DHT22;20704;51.260;22.558;2022-09-25T14:18:18;15.70;99.90
34460;DHT22;20704;51.260;22.558;2022-09-25T14:20:49;15.70;99.90
34460;DHT22;20704;51.260;22.558;2022-09-25T14:25:45;15.70;99.90
34460;DHT22;20704;51.260;22.558;2022-09-25T14:30:47;15.60;99.90
34460;DHT22;20704;51.260;22.558;2022-09-25T14:33:20;15.60;99.90
34460;DHT22;20704;51.260;22.558;2022-09-25T14:41:17;15.60;99.90
34460;DHT22;20704;51.260;22.558;2022-09-25T14:46:18;15.90;99.90
34460;DHT22;20704;51.260;22.558;2022-09-25T14:48:46;15.70;99.90
34460;DHT22;20704;51.260;22.558;2022-09-25T14:51:14;15.70;99.90
34460;DHT22;20704;51.260;22.558;2022-09-25T14:53:42;15.60;99.90
34460;DHT22;20704;51.260;22.558;2022-09-25T14:56:09;15.80;99.90
34460;DHT22;20704;51.260;22.558;2022-09-25T14:58:43;15.60;99.90
34460;DHT22;20704;51.260;22.558;2022-09-25T15:01:12;15.60;99.90
34460;DHT22;20704;51.260;22.558;2022-09-25T15:03:41;15.60;99.90
34460;DHT22;20704;51.260;22.558;2022-09-25T15:06:07;15.60;99.90
34460;DHT22;20704;51.260;22.558;2022-09-25T15:08:37;15.50;99.90
34460;DHT22;20704;51.260;22.558;2022-09-25T15:13:33;15.30;99.90
34460;DHT22;20704;51.260;22.558;2022-09-25T15:15:59;15.40;99.90
34460;DHT22;20704;51.260;22.558;2022-09-25T15:18:45;15.30;99.90
34460;DHT22;20704;51.260;22.558;2022-09-25T15:21:16;15.30;99.90
34460;DHT22;20704;51.260;22.558;2022-09-25T15:23:45;15.30;99.90
34460;DHT22;20704;51.260;22.558;2022-09-25T15:26:12;15.30;99.90
34460;DHT22;20704;51.260;22.558;2022-09-25T15:28:41;15.30;99.90
34460;DHT22;20704;51.260;22.558;2022-09-25T15:31:07;15.10;99.90
34460;DHT22;20704;51.260;22.558;2022-09-25T15:33:34;15.20;99.90
34460;DHT22;20704;51.260;22.558;2022-09-25T15:36:07;15.40;99.90
34460;DHT22;20704;51.260;22.558;2022-09-25T15:38:35;15.20;99.90
34460;DHT22;20704;51.260;22.558;2022-09-25T15:41:01;15.10;99.90
34460;DHT22;20704;51.260;22.558;2022-09-25T15:43:28;15.20;99.90
34460;DHT22;20704;51.260;22.558;2022-09-25T15:48:27;15.10;99.90
34460;DHT22;20704;51.260;22.558;2022-09-25T15:50:55;15.10;99.90
34460;DHT22;20704;51.260;22.558;2022-09-25T15:53:24;15.10;99.90
34460;DHT22;20704;51.260;22.558;2022-09-25T15:55:59;15.30;99.90
34460;DHT22;20704;51.260;22.558;2022-09-25T15:58:26;15.00;99.90
34460;DHT22;20704;51.260;22.558;2022-09-25T16:00:59;15.00;99.90
34460;DHT22;20704;51.260;22.558;2022-09-25T16:03:45;14.90;99.90
34460;DHT22;20704;51.260;22.558;2022-09-25T16:06:35;14.90;99.90
34460;DHT22;20704;51.260;22.558;2022-09-25T16:09:20;15.30;99.90
34460;DHT22;20704;51.260;22.558;2022-09-25T16:11:46;14.80;99.90
34460;DHT22;20704;51.260;22.558;2022-09-25T16:14:28;14.90;99.90
34460;DHT22;20704;51.260;22.558;2022-09-25T16:16:54;14.80;99.90
34460;DHT22;20704;51.260;22.558;2022-09-25T16:21:47;15.00;99.90
34460;DHT22;20704;51.260;22.558;2022-09-25T16:24:17;14.70;99.90
34460;DHT22;20704;51.260;22.558;2022-09-25T16:26:43;14.70;99.90
34460;DHT22;20704;51.260;22.558;2022-09-25T16:31:36;14.70;99.90
34460;DHT22;20704;51.260;22.558;2022-09-25T16:34:03;12.20;99.90
34460;DHT22;20704;51.260;22.558;2022-09-25T16:36:42;14.60;99.90
34460;DHT22;20704;51.260;22.558;2022-09-25T16:41:36;14.60;99.90
34460;DHT22;20704;51.260;22.558;2022-09-25T16:44:15;14.60;99.90
34460;DHT22;20704;51.260;22.558;2022-09-25T16:47:03;14.60;99.90
34460;DHT22;20704;51.260;22.558;2022-09-25T16:49:31;14.60;99.90
34460;DHT22;20704;51.260;22.558;2022-09-25T16:51:57;14.50;99.90
34460;DHT22;20704;51.260;22.558;2022-09-25T16:54:24;14.60;99.90
34460;DHT22;20704;51.260;22.558;2022-09-25T16:56:55;14.60;99.90
34460;DHT22;20704;51.260;22.558;2022-09-25T16:59:24;14.50;99.90
34460;DHT22;20704;51.260;22.558;2022-09-25T17:01:51;14.60;99.90
34460;DHT22;20704;51.260;22.558;2022-09-25T17:04:28;14.40;99.90
34460;DHT22;20704;51.260;22.558;2022-09-25T17:06:55;18.70;99.90
34460;DHT22;20704;51.260;22.558;2022-09-25T17:09:26;14.90;99.90
34460;DHT22;20704;51.260;22.558;2022-09-25T17:11:58;14.40;99.90
34460;DHT22;20704;51.260;22.558;2022-09-25T17:14:25;14.30;99.90
34460;DHT22;20704;51.260;22.558;2022-09-25T17:16:52;14.40;99.90
34460;DHT22;20704;51.260;22.558;2022-09-25T17:19:18;12.40;99.90
34460;DHT22;20704;51.260;22.558;2022-09-25T17:21:45;14.30;99.90
34460;DHT22;20704;51.260;22.558;2022-09-25T17:24:12;12.70;99.90
34460;DHT22;20704;51.260;22.558;2022-09-25T17:26:39;14.40;99.90
34460;DHT22;20704;51.260;22.558;2022-09-25T17:29:05;13.90;99.90
34460;DHT22;20704;51.260;22.558;2022-09-25T17:31:31;12.00;99.90
34460;DHT22;20704;51.260;22.558;2022-09-25T17:33:58;14.50;99.90
34460;DHT22;20704;51.260;22.558;2022-09-25T17:36:24;14.50;99.90
34460;DHT22;20704;51.260;22.558;2022-09-25T17:38:50;14.30;99.90
34460;DHT22;20704;51.260;22.558;2022-09-25T17:41:29;14.40;99.90
34460;DHT22;20704;51.260;22.558;2022-09-25T17:43:56;14.70;99.90
34460;DHT22;20704;51.260;22.558;2022-09-25T17:46:22;14.70;99.90
34460;DHT22;20704;51.260;22.558;2022-09-25T17:48:48;14.40;99.90
34460;DHT22;20704;51.260;22.558;2022-09-25T17:53:40;14.30;99.90
34460;DHT22;20704;51.260;22.558;2022-09-25T17:56:06;18.40;99.90
34460;DHT22;20704;51.260;22.558;2022-09-25T17:58:32;14.30;99.90
34460;DHT22;20704;51.260;22.558;2022-09-25T18:00:59;13.90;99.90
34460;DHT22;20704;51.260;22.558;2022-09-25T18:03:25;14.20;99.90
34460;DHT22;20704;51.260;22.558;2022-09-25T18:05:53;14.20;99.90
34460;DHT22;20704;51.260;22.558;2022-09-25T18:08:19;14.10;99.90
34460;DHT22;20704;51.260;22.558;2022-09-25T18:10:46;14.10;99.90
34460;DHT22;20704;51.260;22.558;2022-09-25T18:13:14;14.10;99.90
34460;DHT22;20704;51.260;22.558;2022-09-25T18:15:42;11.80;99.90
34460;DHT22;20704;51.260;22.558;2022-09-25T18:18:11;18.80;99.90
34460;DHT22;20704;51.260;22.558;2022-09-25T18:20:37;14.10;99.90
34460;DHT22;20704;51.260;22.558;2022-09-25T18:23:21;14.10;99.90
34460;DHT22;20704;51.260;22.558;2022-09-25T18:25:47;14.10;99.90
34460;DHT22;20704;51.260;22.558;2022-09-25T18:28:13;14.10;99.90
34460;DHT22;20704;51.260;22.558;2022-09-25T18:30:39;14.10;99.90
34460;DHT22;20704;51.260;22.558;2022-09-25T18:33:05;14.10;99.90
34460;DHT22;20704;51.260;22.558;2022-09-25T18:35:31;14.10;99.90
34460;DHT22;20704;51.260;22.558;2022-09-25T18:37:57;14.10;99.90
34460;DHT22;20704;51.260;22.558;2022-09-25T18:40:24;14.10;99.90
34460;DHT22;20704;51.260;22.558;2022-09-25T18:42:50;14.10;99.90
34460;DHT22;20704;51.260;22.558;2022-09-25T18:45:18;14.80;99.90
34460;DHT22;20704;51.260;22.558;2022-09-25T18:47:44;10.90;99.90
34460;DHT22;20704;51.260;22.558;2022-09-25T18:50:11;14.10;99.90
34460;DHT22;20704;51.260;22.558;2022-09-25T18:52:37;14.10;99.90
34460;DHT22;20704;51.260;22.558;2022-09-25T18:55:04;14.00;99.90
34460;DHT22;20704;51.260;22.558;2022-09-25T18:57:30;13.90;99.90
34460;DHT22;20704;51.260;22.558;2022-09-25T18:59:56;14.20;99.90
34460;DHT22;20704;51.260;22.558;2022-09-25T19:02:23;14.10;99.90
34460;DHT22;20704;51.260;22.558;2022-09-25T19:04:53;14.00;99.90
34460;DHT22;20704;51.260;22.558;2022-09-25T19:07:20;14.80;99.90
34460;DHT22;20704;51.260;22.558;2022-09-25T19:09:46;9.60;99.90
34460;DHT22;20704;51.260;22.558;2022-09-25T19:12:12;13.80;99.90
34460;DHT22;20704;51.260;22.558;2022-09-25T19:14:40;13.80;99.90
34460;DHT22;20704;51.260;22.558;2022-09-25T19:17:06;13.70;99.90
34460;DHT22;20704;51.260;22.558;2022-09-25T19:19:33;14.90;99.90
34460;DHT22;20704;51.260;22.558;2022-09-25T19:22:00;9.10;99.90
34460;DHT22;20704;51.260;22.558;2022-09-25T19:24:26;13.70;99.90
34460;DHT22;20704;51.260;22.558;2022-09-25T19:26:52;13.80;99.90
34460;DHT22;20704;51.260;22.558;2022-09-25T19:29:18;13.70;99.90
34460;DHT22;20704;51.260;22.558;2022-09-25T19:31:44;13.70;99.90
34460;DHT22;20704;51.260;22.558;2022-09-25T19:34:10;13.70;99.90
34460;DHT22;20704;51.260;22.558;2022-09-25T19:36:36;13.60;99.90
34460;DHT22;20704;51.260;22.558;2022-09-25T19:39:03;13.50;99.90
34460;DHT22;20704;51.260;22.558;2022-09-25T19:41:30;13.60;99.90
34460;DHT22;20704;51.260;22.558;2022-09-25T19:43:57;13.50;99.90
34460;DHT22;20704;51.260;22.558;2022-09-25T19:46:24;13.40;99.90
34460;DHT22;20704;51.260;22.558;2022-09-25T19:48:50;13.40;99.90
34460;DHT22;20704;51.260;22.558;2022-09-25T19:51:17;13.40;99.90
34460;DHT22;20704;51.260;22.558;2022-09-25T19:53:43;13.50;99.90
34460;DHT22;20704;51.260;22.558;2022-09-25T19:56:10;13.40;99.90
34460;DHT22;20704;51.260;22.558;2022-09-25T19:58:36;13.50;99.90
34460;DHT22;20704;51.260;22.558;2022-09-25T20:03:34;12.20;99.90
34460;DHT22;20704;51.260;22.558;2022-09-25T20:06:00;13.40;99.90
34460;DHT22;20704;51.260;22.558;2022-09-25T20:08:27;10.80;99.90
34460;DHT22;20704;51.260;22.558;2022-09-25T20:10:53;13.50;99.90
34460;DHT22;20704;51.260;22.558;2022-09-25T20:13:19;13.30;99.90
34460;DHT22;20704;51.260;22.558;2022-09-25T20:15:45;13.40;99.90
34460;DHT22;20704;51.260;22.558;2022-09-25T20:18:13;13.40;99.90
34460;DHT22;20704;51.260;22.558;2022-09-25T20:20:39;12.80;99.90
34460;DHT22;20704;51.260;22.558;2022-09-25T20:23:06;17.40;99.90
34460;DHT22;20704;51.260;22.558;2022-09-25T20:25:32;13.40;99.90
34460;DHT22;20704;51.260;22.558;2022-09-25T20:27:58;13.40;99.90
34460;DHT22;20704;51.260;22.558;2022-09-25T20:30:24;13.40;99.90
34460;DHT22;20704;51.260;22.558;2022-09-25T20:32:51;13.30;99.90
34460;DHT22;20704;51.260;22.558;2022-09-25T20:35:17;13.30;99.90
34460;DHT22;20704;51.260;22.558;2022-09-25T20:37:44;13.20;99.90
34460;DHT22;20704;51.260;22.558;2022-09-25T20:40:11;13.20;99.90
34460;DHT22;20704;51.260;22.558;2022-09-25T20:42:38;13.10;99.90
34460;DHT22;20704;51.260;22.558;2022-09-25T20:45:05;12.90;99.90
34460;DHT22;20704;51.260;22.558;2022-09-25T20:47:30;12.90;99.90
34460;DHT22;20704;51.260;22.558;2022-09-25T20:49:58;13.00;99.90
34460;DHT22;20704;51.260;22.558;2022-09-25T20:52:25;13.00;99.90
34460;DHT22;20704;51.260;22.558;2022-09-25T20:54:51;12.80;99.90
34460;DHT22;20704;51.260;22.558;2022-09-25T20:57:17;12.90;99.90
34460;DHT22;20704;51.260;22.558;2022-09-25T20:59:43;8.20;99.90
34460;DHT22;20704;51.260;22.558;2022-09-25T21:02:09;12.80;99.90
34460;DHT22;20704;51.260;22.558;2022-09-25T21:04:35;12.90;99.90
34460;DHT22;20704;51.260;22.558;2022-09-25T21:07:01;12.70;99.90
34460;DHT22;20704;51.260;22.558;2022-09-25T21:09:28;12.80;99.90